Time;durP1;ratioP1;P1;durP2;ratioP2;P2;SDS_P1;SDS_P2;PMS_P1;PMS_P2;Temp;Humidity;BMP_temperature;BMP_pressure;BME280_temperature;BME280_humidity;BME280_pressure;Samples;Min_cycle;Max_cycle;Signal;HPM_P1;HPM_P2
2023/10/16 00:02:33;;;;;;;2.80;1.47;;;12.50;73.90;;;;;;10539085;28;20233;-87
2023/10/16 00:07:35;;;;;;;2.17;1.07;;;12.60;78.20;;;;;;10538351;28;20265;-87
2023/10/16 00:12:38;;;;;;;1.77;0.80;;;12.50;74.80;;;;;;10536884;28;20254;-87
2023/10/16 00:17:43;;;;;;;1.33;0.73;;;12.70;75.30;;;;;;10538267;28;20237;-87
2023/10/16 00:22:46;;;;;;;1.47;1.00;;;12.60;74.50;;;;;;10538188;28;20286;-87
2023/10/16 00:27:48;;;;;;;4.17;1.30;;;12.30;75.30;;;;;;10538311;28;20275;-87
2023/10/16 00:32:51;;;;;;;1.93;0.87;;;12.40;79.60;;;;;;10536996;28;20233;-87
2023/10/16 00:37:55;;;;;;;4.33;0.67;;;12.70;74.40;;;;;;10537610;28;20243;-87
2023/10/16 00:43:06;;;;;;;1.43;0.63;;;13.00;75.00;;;;;;10536151;28;20197;-87
2023/10/16 00:48:09;;;;;;;2.97;0.80;;;12.90;78.50;;;;;;10535810;28;20247;-87
2023/10/16 00:53:18;;;;;;;2.07;1.63;;;13.50;72.70;;;;;;10536202;28;20201;-87
2023/10/16 00:58:21;;;;;;;1.67;0.90;;;13.00;67.90;;;;;;10494245;28;20556;-87
2023/10/16 01:03:26;;;;;;;1.63;0.60;;;12.90;74.40;;;;;;10509078;28;20264;-87
2023/10/16 01:08:29;;;;;;;1.83;0.80;;;13.00;72.90;;;;;;10494175;28;20618;-87
2023/10/16 01:13:33;;;;;;;2.47;0.73;;;12.80;75.60;;;;;;10511867;28;20934;-87
2023/10/16 01:18:37;;;;;;;1.40;0.77;;;12.70;73.00;;;;;;10536131;28;20263;-87
2023/10/16 01:23:44;;;;;;;2.93;0.80;;;12.90;70.80;;;;;;10534505;28;20860;-87
2023/10/16 01:28:46;;;;;;;1.07;0.80;;;12.80;75.00;;;;;;10534361;28;20237;-87
2023/10/16 01:33:51;;;;;;;1.50;0.57;;;12.80;75.60;;;;;;10533339;28;20233;-87
2023/10/16 01:38:58;;;;;;;3.27;1.00;;;13.10;73.20;;;;;;10516863;28;20259;-87
2023/10/16 01:44:09;;;;;;;2.57;0.73;;;13.10;75.00;;;;;;10534418;28;20249;-87
2023/10/16 01:49:12;;;;;;;2.60;1.17;;;12.80;72.10;;;;;;10533856;28;20707;-87
2023/10/16 01:54:15;;;;;;;3.20;0.90;;;12.60;79.20;;;;;;10534535;28;20229;-87
2023/10/16 01:59:21;;;;;;;3.77;1.10;;;12.60;73.90;;;;;;10533393;28;20221;-87
2023/10/16 02:04:24;;;;;;;1.57;0.70;;;12.80;73.40;;;;;;10532606;28;20265;-87
2023/10/16 02:09:31;;;;;;;1.10;0.60;;;12.80;78.40;;;;;;10532975;28;20631;-87
2023/10/16 02:14:39;;;;;;;4.93;1.40;;;12.70;77.60;;;;;;10532562;28;20273;-87
2023/10/16 02:19:45;;;;;;;0.60;0.23;;;12.50;73.50;;;;;;10532621;28;20290;-87
2023/10/16 02:24:48;;;;;;;1.20;0.60;;;12.70;84.30;;;;;;10533759;28;20302;-87
2023/10/16 02:29:52;;;;;;;2.87;1.10;;;12.80;80.30;;;;;;10532875;28;20258;-87
2023/10/16 02:34:56;;;;;;;4.20;1.00;;;12.50;75.40;;;;;;10533000;28;20225;-87
2023/10/16 02:39:58;;;;;;;5.27;0.60;;;12.40;73.40;;;;;;10533244;28;20237;-86
2023/10/16 02:45:02;;;;;;;2.70;1.10;;;12.30;80.80;;;;;;10514490;28;20245;-87
2023/10/16 02:50:08;;;;;;;6.17;0.70;;;12.50;73.70;;;;;;10531398;28;20254;-87
2023/10/16 02:55:11;;;;;;;1.07;0.60;;;12.40;80.00;;;;;;10531784;28;20205;-87
2023/10/16 03:00:34;;;;;;;3.27;1.07;;;12.70;81.30;;;;;;10532627;28;20224;-87
2023/10/16 03:05:36;;;;;;;2.33;0.87;;;13.00;76.30;;;;;;10513848;28;20294;-87
2023/10/16 03:10:40;;;;;;;3.30;0.90;;;13.10;80.40;;;;;;10532634;28;20243;-87
2023/10/16 03:15:46;;;;;;;2.13;0.73;;;12.70;69.80;;;;;;10532321;28;20233;-87
2023/10/16 03:26:25;;;;;;;2.70;1.77;;;12.90;74.10;;;;;;10539209;28;20272;-87
2023/10/16 03:31:29;;;;;;;2.10;1.00;;;12.50;72.50;;;;;;10527465;28;20251;-87
2023/10/16 03:36:32;;;;;;;1.20;0.50;;;12.70;76.00;;;;;;10538418;28;20249;-87
2023/10/16 03:41:39;;;;;;;4.50;0.70;;;12.90;81.10;;;;;;10538928;28;20625;-87
2023/10/16 03:46:41;;;;;;;3.23;0.90;;;13.10;78.50;;;;;;10537278;28;20661;-87
2023/10/16 03:51:45;;;;;;;1.27;0.63;;;12.60;68.80;;;;;;10538014;28;20275;-87
2023/10/16 03:56:48;;;;;;;1.93;0.60;;;12.20;81.20;;;;;;10537525;28;20244;-87
2023/10/16 04:01:51;;;;;;;2.73;0.80;;;12.20;78.00;;;;;;10537683;28;20965;-87
2023/10/16 04:06:56;;;;;;;2.53;0.93;;;12.40;79.30;;;;;;10538221;28;20261;-87
2023/10/16 04:12:02;;;;;;;1.83;0.80;;;12.30;79.10;;;;;;10536880;28;20649;-87
2023/10/16 04:17:10;;;;;;;2.60;0.70;;;12.30;74.90;;;;;;10538470;28;20286;-86
2023/10/16 04:22:16;;;;;;;1.60;1.20;;;11.80;80.40;;;;;;10537598;28;20241;-87
2023/10/16 04:37:40;;;;;;;3.30;1.20;;;12.20;82.00;;;;;;10537214;28;20236;-87
2023/10/16 04:53:08;;;;;;;1.60;0.83;;;12.20;77.30;;;;;;10536077;28;20225;-87
2023/10/16 05:03:23;;;;;;;2.13;0.97;;;12.30;67.50;;;;;;10535505;28;20276;-87
2023/10/16 05:08:48;;;;;;;3.70;1.03;;;11.90;77.30;;;;;;10533872;28;20306;-88
2023/10/16 05:19:17;;;;;;;3.13;0.87;;;12.40;80.30;;;;;;10536012;28;20266;-86
2023/10/16 06:18:30;;;;;;;3.83;1.00;;;12.20;72.30;;;;;;10403166;28;20261;-85
2023/10/16 06:23:33;;;;;;;2.00;1.13;;;12.60;69.10;;;;;;10402815;28;20305;-85
2023/10/16 06:28:47;;;;;;;5.10;1.37;;;12.70;67.20;;;;;;10386665;28;21124;-86
2023/10/16 06:33:53;;;;;;;8.23;1.00;;;;;;;;;;10403077;28;20231;-86
2023/10/16 06:38:58;;;;;;;3.27;1.17;;;12.40;67.00;;;;;;10386799;28;20736;-87
2023/10/16 06:44:01;;;;;;;7.87;1.37;;;12.50;66.50;;;;;;10503644;28;20233;-87
2023/10/16 06:49:09;;;;;;;7.10;1.97;;;13.20;59.60;;;;;;10532415;28;20308;-88
2023/10/16 06:54:11;;;;;;;3.50;0.97;;;13.00;58.20;;;;;;10532670;28;20241;-88
2023/10/16 06:59:16;;;;;;;2.80;0.93;;;13.00;61.20;;;;;;10531679;28;20669;-87
2023/10/16 07:04:19;;;;;;;4.37;2.17;;;12.90;57.50;;;;;;10531433;28;20323;-88
2023/10/16 07:09:22;;;;;;;1.83;0.83;;;12.80;57.60;;;;;;10530394;28;20262;-88
2023/10/16 07:14:24;;;;;;;2.03;0.90;;;12.80;64.80;;;;;;10530879;28;20204;-88
2023/10/16 07:19:28;;;;;;;2.47;0.97;;;13.50;60.70;;;;;;10530439;28;20229;-88
2023/10/16 07:24:34;;;;;;;3.23;1.00;;;12.90;61.30;;;;;;10532370;28;20240;-87
2023/10/16 07:29:41;;;;;;;3.73;0.93;;;13.20;62.00;;;;;;10531087;28;20274;-87
2023/10/16 07:34:43;;;;;;;3.43;1.20;;;13.20;62.60;;;;;;10531862;28;20232;-88
2023/10/16 07:39:46;;;;;;;4.50;1.20;;;13.60;59.50;;;;;;10532613;28;20205;-87
2023/10/16 07:44:51;;;;;;;2.33;0.87;;;13.60;57.20;;;;;;10530399;28;20830;-87
2023/10/16 07:49:54;;;;;;;2.03;1.00;;;14.10;58.30;;;;;;10535451;28;20194;-88
2023/10/16 07:54:56;;;;;;;8.30;1.60;;;13.70;56.10;;;;;;10533841;28;20213;-87
2023/10/16 08:00:07;;;;;;;2.60;0.80;;;13.90;50.80;;;;;;10532170;28;20228;-87
2023/10/16 08:05:15;;;;;;;1.53;1.13;;;13.60;58.90;;;;;;10530678;28;20294;-87
2023/10/16 08:15:44;;;;;;;2.17;1.10;;;14.00;57.50;;;;;;10537991;28;20229;-87
2023/10/16 08:21:00;;;;;;;3.33;1.33;;;14.10;54.60;;;;;;10538753;28;20236;-87
2023/10/16 08:26:27;;;;;;;1.37;1.00;;;14.50;56.70;;;;;;10536843;28;20264;-87
2023/10/16 08:31:32;;;;;;;2.43;1.17;;;14.50;54.90;;;;;;10538304;28;20259;-87
2023/10/16 08:36:34;;;;;;;1.23;0.87;;;14.90;51.00;;;;;;10537405;28;20255;-87
2023/10/16 08:41:43;;;;;;;3.47;1.07;;;14.90;52.20;;;;;;10537821;28;20225;-85
2023/10/16 08:46:53;;;;;;;1.80;0.53;;;14.40;50.90;;;;;;10537348;28;20249;-87
2023/10/16 08:52:03;;;;;;;1.20;0.63;;;14.40;54.70;;;;;;10535588;28;20237;-87
2023/10/16 08:57:09;;;;;;;3.20;1.20;;;15.00;52.20;;;;;;10508821;28;20233;-87
2023/10/16 09:02:17;;;;;;;4.57;1.33;;;15.70;47.90;;;;;;10536729;28;20202;-86
2023/10/16 09:07:20;;;;;;;2.80;1.20;;;15.60;44.00;;;;;;10493276;28;20694;-86
2023/10/16 09:12:26;;;;;;;3.30;0.90;;;15.40;45.20;;;;;;10494914;28;20378;-86
2023/10/16 09:17:29;;;;;;;2.67;1.00;;;15.70;45.70;;;;;;10495000;28;20294;-86
2023/10/16 09:22:33;;;;;;;1.10;0.97;;;15.60;44.10;;;;;;10504540;28;20229;-86
2023/10/16 09:27:36;;;;;;;1.97;0.80;;;15.30;44.10;;;;;;10531458;28;20636;-86
2023/10/16 09:32:39;;;;;;;1.70;0.67;;;15.00;45.90;;;;;;10533661;28;20302;-86
2023/10/16 09:37:47;;;;;;;2.97;1.37;;;15.10;48.00;;;;;;10534098;28;20240;-86
2023/10/16 09:42:56;;;;;;;4.43;1.27;;;14.60;46.20;;;;;;10534525;28;20676;-86
2023/10/16 09:48:07;;;;;;;7.37;1.93;;;14.50;49.00;;;;;;10517153;28;20283;-86
2023/10/16 09:53:10;;;;;;;1.87;0.70;;;14.30;46.10;;;;;;10532575;28;20294;-87
2023/10/16 09:58:13;;;;;;;2.67;1.17;;;14.90;51.20;;;;;;10533291;28;20242;-87
2023/10/16 10:03:19;;;;;;;5.93;1.47;;;15.20;44.60;;;;;;10533950;28;20638;-86
2023/10/16 10:08:27;;;;;;;4.20;1.40;;;14.80;43.50;;;;;;10534425;28;20261;-87
2023/10/16 10:13:35;;;;;;;4.17;1.80;;;14.90;40.90;;;;;;10534444;28;20675;-87
2023/10/16 10:18:45;;;;;;;4.60;1.50;;;14.20;41.80;;;;;;10533486;28;20255;-87
2023/10/16 10:23:49;;;;;;;4.83;2.00;;;13.90;43.30;;;;;;10533237;28;20233;-87
2023/10/16 10:29:09;;;;;;;5.43;1.73;;;13.90;42.50;;;;;;10532132;28;20245;-87
2023/10/16 10:34:28;;;;;;;4.13;1.10;;;14.00;52.00;;;;;;10517897;28;20274;-87
2023/10/16 10:39:43;;;;;;;4.37;1.20;;;13.80;46.40;;;;;;10535243;28;20232;-87
2023/10/16 10:45:21;;;;;;;4.10;0.93;;;13.40;45.40;;;;;;10531596;28;20948;-87
2023/10/16 10:50:27;;;;;;;6.43;2.27;;;13.30;51.00;;;;;;10530657;28;20228;-87
2023/10/16 10:55:29;;;;;;;5.40;1.47;;;12.70;43.20;;;;;;10533318;28;20234;-86
2023/10/16 11:05:40;;;;;;;4.93;1.47;;;13.70;43.30;;;;;;10532286;28;20266;-86
2023/10/16 11:10:46;;;;;;;4.37;1.00;;;14.00;43.90;;;;;;10532830;28;20204;-86
2023/10/16 11:15:53;;;;;;;3.93;1.60;;;14.50;40.20;;;;;;10532455;28;20267;-86
2023/10/16 11:21:03;;;;;;;4.20;1.13;;;14.20;37.70;;;;;;10531639;28;20659;-86
2023/10/16 11:26:12;;;;;;;3.20;1.10;;;13.90;41.00;;;;;;10530904;28;20253;-86
2023/10/16 11:31:17;;;;;;;5.13;1.40;;;13.90;45.50;;;;;;10532350;28;20233;-86
2023/10/16 11:36:23;;;;;;;7.73;1.30;;;14.30;41.80;;;;;;10531733;28;20964;-86
2023/10/16 11:41:26;;;;;;;2.50;1.20;;;14.00;39.50;;;;;;10532418;28;20208;-86
2023/10/16 11:46:31;;;;;;;4.73;1.10;;;14.30;41.40;;;;;;10539991;28;20253;-86
2023/10/16 11:51:35;;;;;;;3.57;1.00;;;14.30;41.20;;;;;;10538045;28;20241;-86
2023/10/16 11:56:38;;;;;;;1.87;0.80;;;14.20;37.80;;;;;;10538013;28;20671;-86
2023/10/16 12:01:40;;;;;;;4.07;1.10;;;13.70;41.70;;;;;;10538183;28;20229;-86
2023/10/16 12:06:48;;;;;;;5.77;1.00;;;13.50;39.70;;;;;;10534090;28;20309;-86
2023/10/16 12:11:52;;;;;;;3.03;1.33;;;13.40;41.50;;;;;;10538173;28;20225;-86
2023/10/16 12:16:57;;;;;;;2.43;1.20;;;13.40;42.30;;;;;;10538376;28;20596;-86
2023/10/16 12:22:00;;;;;;;3.07;1.00;;;13.50;43.80;;;;;;10535198;28;20234;-86
2023/10/16 12:27:03;;;;;;;1.67;1.13;;;13.30;42.30;;;;;;10538381;28;20252;-86
2023/10/16 12:32:06;;;;;;;2.47;0.90;;;13.10;44.00;;;;;;10537529;28;20633;-86
2023/10/16 12:37:09;;;;;;;3.03;1.23;;;13.10;43.30;;;;;;10536148;28;20314;-86
2023/10/16 12:42:13;;;;;;;2.53;1.00;;;13.10;46.40;;;;;;10536501;28;20294;-86
2023/10/16 12:47:16;;;;;;;2.43;1.00;;;12.50;45.20;;;;;;10518729;28;20256;-86
2023/10/16 12:52:39;;;;;;;6.80;1.67;;;12.60;51.00;;;;;;10536942;28;20302;-86
2023/10/16 12:57:44;;;;;;;3.43;1.30;;;12.70;48.40;;;;;;10534993;28;20282;-86
2023/10/16 13:02:48;;;;;;;5.57;1.20;;;12.80;51.60;;;;;;10536794;28;20235;-86
2023/10/16 13:07:51;;;;;;;3.43;1.57;;;13.00;47.20;;;;;;10536189;28;20268;-86
2023/10/16 13:13:00;;;;;;;3.17;1.13;;;13.20;46.00;;;;;;10535193;28;20567;-87
2023/10/16 13:18:03;;;;;;;4.73;1.43;;;13.50;44.70;;;;;;10537798;28;20246;-86
2023/10/16 13:23:06;;;;;;;1.47;0.87;;;13.50;43.10;;;;;;10537590;28;20615;-86
2023/10/16 13:28:09;;;;;;;3.30;1.87;;;13.50;43.80;;;;;;10537912;28;20739;-90
2023/10/16 13:33:11;;;;;;;5.13;1.53;;;13.10;35.20;;;;;;10535848;28;20570;-88
2023/10/16 13:38:14;;;;;;;6.40;2.00;;;13.30;45.70;;;;;;10533996;28;20233;-88
2023/10/16 13:43:18;;;;;;;3.83;1.23;;;13.50;39.70;;;;;;10523221;28;20639;-88
2023/10/16 13:48:21;;;;;;;5.80;1.20;;;13.30;42.40;;;;;;10536390;28;20689;-88
2023/10/16 13:53:24;;;;;;;5.23;1.17;;;13.40;44.00;;;;;;10534585;28;20202;-88
2023/10/16 13:58:27;;;;;;;4.93;1.53;;;13.50;46.30;;;;;;10533979;28;20238;-88
2023/10/16 14:03:29;;;;;;;6.87;1.87;;;13.60;47.10;;;;;;10533578;28;20797;-88
2023/10/16 14:08:36;;;;;;;6.20;1.27;;;13.80;40.50;;;;;;10534004;28;20614;-87
2023/10/16 14:13:42;;;;;;;2.17;0.87;;;13.90;39.00;;;;;;10536975;28;20619;-87
2023/10/16 14:18:45;;;;;;;1.80;1.10;;;14.40;44.70;;;;;;10537063;28;20693;-88
2023/10/16 14:23:48;;;;;;;1.87;0.70;;;15.00;42.60;;;;;;10537621;28;20210;-88
2023/10/16 14:28:52;;;;;;;7.23;1.00;;;15.40;39.90;;;;;;10537079;28;20225;-88
2023/10/16 14:33:55;;;;;;;2.27;1.13;;;14.90;35.40;;;;;;10538301;28;20633;-89
2023/10/16 14:39:03;;;;;;;5.37;0.77;;;14.80;33.40;;;;;;10540087;28;20205;-88
2023/10/16 14:44:08;;;;;;;3.27;0.90;;;14.30;38.20;;;;;;10541387;28;20205;-88
2023/10/16 14:49:26;;;;;;;1.47;0.80;;;13.90;43.00;;;;;;10525167;28;20225;-88
2023/10/16 14:54:30;;;;;;;5.27;0.90;;;14.30;39.40;;;;;;10540233;28;20234;-89
2023/10/16 14:59:33;;;;;;;0.63;0.40;;;14.10;38.40;;;;;;10560129;28;20571;-89
2023/10/16 15:04:37;;;;;;;3.50;1.20;;;14.10;47.40;;;;;;10540126;28;20229;-89
2023/10/16 15:09:46;;;;;;;3.47;1.60;;;14.30;44.40;;;;;;10538670;28;20229;-89
2023/10/16 15:14:48;;;;;;;4.40;1.83;;;14.10;40.10;;;;;;10540958;28;20617;-88
2023/10/16 15:19:51;;;;;;;3.07;1.37;;;14.10;43.20;;;;;;10575482;28;20185;-89
2023/10/16 15:24:53;;;;;;;2.60;1.00;;;14.00;44.80;;;;;;10575765;28;20186;-89
2023/10/16 15:29:56;;;;;;;2.77;1.30;;;14.10;48.00;;;;;;10594129;28;20236;-88
2023/10/16 15:34:59;;;;;;;2.40;1.43;;;13.80;46.20;;;;;;10594821;28;20188;-89
2023/10/16 15:40:01;;;;;;;1.37;0.70;;;13.70;45.50;;;;;;10594482;28;20177;-89
2023/10/16 15:45:04;;;;;;;5.23;1.27;;;13.80;49.40;;;;;;10594745;28;20178;-89
2023/10/16 15:50:10;;;;;;;2.70;1.33;;;13.60;49.00;;;;;;10593392;28;20240;-89
2023/10/16 15:55:17;;;;;;;4.03;1.50;;;13.30;51.10;;;;;;10576000;28;20186;-89
2023/10/16 16:00:25;;;;;;;3.73;1.43;;;12.90;50.70;;;;;;10593061;28;20182;-89
2023/10/16 16:05:32;;;;;;;6.23;2.83;;;12.60;55.70;;;;;;10593664;28;20230;-90
2023/10/16 16:10:40;;;;;;;5.40;2.90;;;12.30;53.50;;;;;;10576673;28;20235;-89
2023/10/16 16:15:42;;;;;;;8.03;1.57;;;12.30;57.20;;;;;;10592433;28;20223;-89
2023/10/16 16:20:47;;;;;;;5.53;2.53;;;12.30;61.00;;;;;;10592927;28;20178;-89
2023/10/16 16:25:50;;;;;;;5.80;3.83;;;12.10;59.10;;;;;;10575177;28;20181;-89
2023/10/16 16:30:53;;;;;;;2.87;2.23;;;12.00;62.10;;;;;;10592022;28;20235;-89
2023/10/16 16:35:56;;;;;;;4.37;1.43;;;11.80;67.30;;;;;;10592799;28;20170;-89
2023/10/16 16:40:59;;;;;;;2.80;1.67;;;11.90;68.40;;;;;;10592379;28;20169;-89
2023/10/16 16:46:03;;;;;;;9.53;2.07;;;11.90;70.90;;;;;;10594856;28;20177;-89
2023/10/16 16:51:06;;;;;;;5.63;1.87;;;11.70;69.00;;;;;;10578261;28;20232;-89
2023/10/16 16:56:09;;;;;;;4.83;3.20;;;11.70;74.40;;;;;;10575538;28;20173;-89
2023/10/16 17:01:11;;;;;;;7.40;3.97;;;11.60;71.50;;;;;;10592445;28;20224;-89
2023/10/16 17:06:14;;;;;;;5.77;3.60;;;11.40;72.30;;;;;;10591685;28;20255;-89
2023/10/16 17:11:17;;;;;;;12.03;4.40;;;11.20;77.80;;;;;;10592812;28;20231;-89
2023/10/16 17:16:19;;;;;;;10.37;5.00;;;11.20;77.50;;;;;;10591385;28;20192;-89
2023/10/16 17:21:23;;;;;;;21.43;10.10;;;11.20;77.60;;;;;;10591289;28;20174;-88
2023/10/16 17:26:26;;;;;;;20.33;11.10;;;11.10;79.20;;;;;;10587920;28;20203;-89
2023/10/16 17:31:29;;;;;;;16.73;10.57;;;10.70;78.80;;;;;;10590827;28;20235;-89
2023/10/16 17:36:32;;;;;;;29.13;14.63;;;10.20;80.10;;;;;;10583744;28;20173;-88
2023/10/16 17:41:35;;;;;;;12.47;6.60;;;9.60;84.90;;;;;;10592959;28;20238;-89
2023/10/16 17:46:40;;;;;;;13.33;7.60;;;9.50;90.40;;;;;;10593781;28;20203;-88
2023/10/16 17:51:43;;;;;;;26.40;17.83;;;9.40;91.60;;;;;;10577843;28;20205;-88
2023/10/16 17:56:46;;;;;;;40.23;22.90;;;8.80;92.10;;;;;;10591827;28;20206;-88
2023/10/16 18:01:48;;;;;;;51.37;30.30;;;8.70;93.70;;;;;;10592448;28;20177;-89
2023/10/16 18:06:54;;;;;;;20.10;12.83;;;8.30;94.50;;;;;;10589339;28;21154;-88
2023/10/16 18:12:03;;;;;;;15.90;9.40;;;7.90;96.20;;;;;;10591563;28;20182;-89
2023/10/16 18:17:08;;;;;;;9.27;5.90;;;7.70;98.10;;;;;;10564217;28;20232;-89
2023/10/16 18:22:14;;;;;;;8.73;7.07;;;7.70;98.60;;;;;;10548227;28;20193;-88
2023/10/16 18:27:17;;;;;;;21.23;15.37;;;8.00;99.20;;;;;;10548486;28;20228;-88
2023/10/16 18:32:27;;;;;;;29.03;21.60;;;8.10;99.80;;;;;;10549054;28;20204;-88
2023/10/16 18:37:30;;;;;;;16.17;10.03;;;8.00;99.80;;;;;;10549172;28;20178;-89
2023/10/16 18:42:33;;;;;;;16.43;10.57;;;7.70;99.00;;;;;;10571391;28;20246;-89
2023/10/16 18:47:35;;;;;;;12.47;10.57;;;7.50;99.50;;;;;;10591892;28;20228;-90
2023/10/16 18:52:38;;;;;;;9.20;7.60;;;7.10;99.90;;;;;;10591384;28;20179;-89
2023/10/16 18:57:41;;;;;;;9.80;7.37;;;7.20;99.90;;;;;;10590979;28;20207;-90
2023/10/16 19:02:44;;;;;;;10.60;6.63;;;7.10;99.90;;;;;;10591566;28;20175;-90
2023/10/16 19:07:47;;;;;;;11.57;6.33;;;6.90;99.90;;;;;;10591355;28;20229;-90
2023/10/16 19:12:51;;;;;;;9.57;6.63;;;6.70;99.90;;;;;;10591743;28;20203;-89
2023/10/16 19:17:54;;;;;;;8.07;6.47;;;6.80;99.90;;;;;;10591823;28;20181;-90
2023/10/16 19:22:57;;;;;;;14.27;8.67;;;6.80;99.90;;;;;;10591211;28;20199;-89
2023/10/16 19:28:00;;;;;;;8.77;6.03;;;6.30;99.90;;;;;;10591363;28;20209;-90
2023/10/16 19:33:03;;;;;;;15.37;10.90;;;6.20;99.90;;;;;;10591254;28;20209;-90
2023/10/16 19:38:06;;;;;;;23.63;13.10;;;6.70;99.90;;;;;;10586351;28;20209;-89
2023/10/16 19:43:11;;;;;;;33.73;21.23;;;7.00;99.90;;;;;;10551216;28;20263;-90
2023/10/16 19:48:14;;;;;;;27.40;16.27;;;6.70;99.90;;;;;;10549148;28;20217;-90
2023/10/16 19:53:19;;;;;;;23.80;14.67;;;6.00;99.90;;;;;;10549922;28;20223;-89
2023/10/16 19:58:21;;;;;;;29.73;17.67;;;5.60;99.90;;;;;;10531793;28;20216;-89
2023/10/16 20:03:25;;;;;;;24.33;13.70;;;5.50;99.90;;;;;;10550847;28;20235;-89
2023/10/16 20:08:30;;;;;;;16.53;10.00;;;5.10;99.90;;;;;;10554318;28;20225;-89
2023/10/16 20:13:33;;;;;;;13.53;8.87;;;5.00;99.90;;;;;;10551542;28;20189;-89
2023/10/16 20:18:36;;;;;;;11.90;8.77;;;5.40;99.90;;;;;;10550957;28;20219;-89
2023/10/16 20:23:39;;;;;;;17.30;10.17;;;5.20;99.90;;;;;;10550301;28;20214;-89
2023/10/16 20:28:43;;;;;;;18.90;10.77;;;5.10;99.90;;;;;;10551690;28;20295;-89
2023/10/16 20:33:48;;;;;;;41.43;13.97;;;4.90;99.90;;;;;;10531895;28;20209;-89
2023/10/16 20:38:52;;;;;;;40.67;17.27;;;5.00;99.90;;;;;;10549733;28;20227;-89
2023/10/16 20:43:56;;;;;;;41.73;17.80;;;4.50;99.90;;;;;;10517799;28;20248;-89
2023/10/16 20:48:59;;;;;;;33.17;15.57;;;4.40;99.90;;;;;;10550070;28;20198;-89
2023/10/16 20:54:06;;;;;;;38.60;19.13;;;4.70;99.90;;;;;;10526705;28;20209;-89
2023/10/16 20:59:09;;;;;;;42.57;20.30;;;4.50;99.90;;;;;;10548387;28;20207;-89
2023/10/16 21:04:12;;;;;;;39.47;17.63;;;4.10;99.90;;;;;;10523600;28;20238;-89
2023/10/16 21:09:15;;;;;;;37.97;17.30;;;4.10;99.90;;;;;;10504080;28;20215;-89
2023/10/16 21:14:18;;;;;;;34.83;19.33;;;4.00;99.90;;;;;;10503457;28;20207;-89
2023/10/16 21:19:20;;;;;;;32.53;14.90;;;4.20;99.90;;;;;;10503455;28;20198;-89
2023/10/16 21:24:23;;;;;;;25.87;16.03;;;4.00;99.90;;;;;;10505589;28;20248;-89
2023/10/16 21:29:26;;;;;;;31.10;16.30;;;3.90;99.90;;;;;;10543772;28;20230;-89
2023/10/16 21:34:28;;;;;;;31.43;17.03;;;3.70;99.90;;;;;;10544455;28;20193;-89
2023/10/16 21:39:31;;;;;;;22.57;14.13;;;3.70;99.90;;;;;;10544804;28;20247;-89
2023/10/16 21:44:34;;;;;;;35.57;18.83;;;3.70;99.90;;;;;;10542984;28;20245;-89
2023/10/16 21:49:41;;;;;;;30.60;17.13;;;3.60;99.90;;;;;;10545357;28;20210;-89
2023/10/16 21:54:44;;;;;;;27.13;16.53;;;3.50;99.90;;;;;;10543498;28;20197;-89
2023/10/16 21:59:47;;;;;;;30.53;14.80;;;3.50;99.90;;;;;;10545445;28;20608;-89
2023/10/16 22:04:52;;;;;;;30.10;17.43;;;;;;;;;;10544443;28;20217;-89
2023/10/16 22:09:58;;;;;;;27.43;15.83;;;;;;;;;;10542864;28;20762;-89
2023/10/16 22:15:05;;;;;;;26.00;14.67;;;;;;;;;;10545087;28;20194;-89
2023/10/16 22:20:13;;;;;;;30.50;16.53;;;;;;;;;;10542635;28;20239;-90
2023/10/16 22:25:17;;;;;;;37.47;18.33;;;;;;;;;;10540083;28;20210;-90
2023/10/16 22:30:21;;;;;;;34.30;20.00;;;;;;;;;;10538013;28;20225;-89
2023/10/16 22:35:24;;;;;;;33.57;19.60;;;;;;;;;;10533758;28;20286;-90
2023/10/16 22:40:28;;;;;;;39.90;22.30;;;;;;;;;;10533311;28;20237;-89
2023/10/16 22:45:31;;;;;;;38.50;21.50;;;;;;;;;;10533287;28;20291;-90
2023/10/16 22:50:36;;;;;;;37.63;23.27;;;;;;;;;;10533383;28;20302;-89
2023/10/16 22:55:39;;;;;;;34.60;20.40;;;;;;;;;;10532548;28;20749;-90
2023/10/16 23:00:43;;;;;;;40.40;20.63;;;;;;;;;;10533883;28;20255;-91
2023/10/16 23:05:45;;;;;;;32.50;19.87;;;;;;;;;;10531639;28;20257;-90
2023/10/16 23:10:49;;;;;;;32.60;18.13;;;;;;;;;;10530614;28;20283;-90
2023/10/16 23:15:53;;;;;;;31.37;18.87;;;;;;;;;;10532913;28;20290;-90
2023/10/16 23:20:56;;;;;;;32.53;20.00;;;;;;;;;;10531994;28;20241;-90
2023/10/16 23:26:00;;;;;;;33.83;19.17;;;;;;;;;;10531908;28;20282;-90
2023/10/16 23:31:05;;;;;;;37.40;18.70;;;;;;;;;;10532263;28;20310;-91
2023/10/16 23:36:11;;;;;;;39.17;20.77;;;;;;;;;;10531202;28;20278;-90
2023/10/16 23:41:40;;;;;;;31.83;18.37;;;;;;;;;;10538579;28;20237;-89
2023/10/16 23:46:44;;;;;;;34.77;20.30;;;;;;;;;;10539250;28;20765;-90
2023/10/16 23:51:48;;;;;;;34.17;18.50;;;;;;;;;;10538492;28;20254;-90
2023/10/16 23:57:14;;;;;;;38.07;21.53;;;;;;;;;;10539426;28;20291;-90
